createdAt,value
2018-07-09T00:01:42.027Z,1.50
2018-07-09T00:04:14.083Z,1.30
2018-07-09T00:06:45.850Z,1.30
2018-07-09T00:09:17.820Z,1.60
2018-07-09T00:11:49.629Z,1.40
2018-07-09T00:14:20.958Z,1.10
2018-07-09T00:16:53.182Z,1.17
2018-07-09T00:19:25.043Z,1.00
2018-07-09T00:21:56.678Z,1.33
2018-07-09T00:24:28.278Z,1.00
2018-07-09T00:26:59.565Z,1.03
2018-07-09T00:29:31.047Z,1.10
2018-07-09T00:32:02.432Z,1.20
2018-07-09T00:34:34.158Z,1.17
2018-07-09T00:37:05.671Z,0.97
2018-07-09T00:39:37.994Z,1.00
2018-07-09T00:42:10.219Z,0.90
2018-07-09T00:44:42.675Z,0.93
2018-07-09T00:47:14.504Z,1.07
2018-07-09T00:49:46.172Z,1.07
2018-07-09T00:52:18.095Z,0.87
2018-07-09T00:54:49.761Z,1.03
2018-07-09T00:57:22.215Z,1.20
2018-07-09T00:59:53.960Z,1.30
2018-07-09T01:02:25.615Z,1.00
2018-07-09T01:04:57.315Z,0.83
2018-07-09T01:07:29.022Z,1.10
2018-07-09T01:10:00.466Z,1.10
2018-07-09T01:12:31.979Z,0.90
2018-07-09T01:15:04.120Z,1.00
2018-07-09T01:17:36.019Z,0.90
2018-07-09T01:20:07.932Z,1.13
2018-07-09T01:22:39.496Z,1.00
2018-07-09T01:25:11.123Z,1.03
2018-07-09T01:27:43.293Z,1.07
2018-07-09T01:30:16.344Z,1.10
2018-07-09T01:32:47.892Z,1.20
2018-07-09T01:35:19.593Z,1.27
2018-07-09T01:37:52.195Z,1.17
2018-07-09T01:40:23.971Z,1.10
2018-07-09T01:42:55.387Z,1.20
2018-07-09T01:45:27.126Z,1.13
2018-07-09T01:47:59.007Z,1.17
2018-07-09T01:50:30.603Z,1.10
2018-07-09T01:53:02.182Z,1.00
2018-07-09T01:55:33.805Z,1.00
2018-07-09T01:58:05.603Z,1.03
2018-07-09T02:00:39.154Z,1.20
2018-07-09T02:03:11.105Z,0.90
2018-07-09T02:05:42.535Z,1.10
2018-07-09T02:08:14.721Z,0.97
2018-07-09T02:10:47.798Z,1.17
2018-07-09T02:13:19.408Z,1.03
2018-07-09T02:15:51.225Z,1.33
2018-07-09T02:18:23.487Z,1.13
2018-07-09T02:20:54.873Z,1.30
2018-07-09T02:23:26.769Z,1.27
2018-07-09T02:25:58.887Z,1.00
2018-07-09T02:28:30.344Z,0.90
2018-07-09T02:31:02.048Z,0.83
2018-07-09T02:33:33.998Z,1.10
2018-07-09T02:36:05.450Z,0.90
2018-07-09T02:38:36.839Z,0.83
2018-07-09T02:41:08.387Z,1.07
2018-07-09T02:50:00.359Z,1.50
2018-07-09T02:52:31.537Z,1.40
2018-07-09T02:55:02.993Z,1.10
2018-07-09T02:57:34.594Z,1.30
2018-07-09T03:00:06.222Z,1.00
2018-07-09T04:08:56.915Z,1.47
2018-07-09T04:11:28.216Z,1.20
2018-07-09T04:13:59.606Z,1.10
2018-07-09T04:16:30.608Z,1.53
2018-07-09T04:19:02.992Z,1.40
2018-07-09T04:21:34.606Z,1.40
2018-07-09T04:24:05.533Z,1.30
2018-07-09T04:26:36.572Z,1.20
2018-07-09T04:29:07.618Z,1.13
2018-07-09T04:31:38.765Z,1.30
2018-07-09T04:34:09.863Z,1.60
2018-07-09T04:36:41.118Z,1.03
2018-07-09T04:39:12.385Z,1.20
2018-07-09T04:41:44.261Z,1.20
2018-07-09T04:44:15.473Z,1.00
2018-07-09T04:46:46.738Z,1.40
2018-07-09T04:49:17.921Z,1.10
2018-07-09T04:51:49.447Z,1.20
2018-07-09T04:54:20.954Z,1.57
2018-07-09T04:56:51.259Z,1.30
2018-07-09T04:59:22.153Z,1.13
2018-07-09T05:01:53.176Z,1.30
2018-07-09T05:04:24.696Z,1.00
2018-07-09T05:06:55.784Z,1.50
2018-07-09T05:09:27.367Z,1.50
2018-07-09T05:11:58.597Z,1.20
2018-07-09T05:14:29.803Z,1.40
2018-07-09T05:17:00.849Z,1.50
2018-07-09T05:19:32.308Z,1.37
2018-07-09T05:22:03.554Z,1.33
2018-07-09T05:24:34.618Z,1.13
2018-07-09T05:27:06.069Z,1.30
2018-07-09T05:29:37.307Z,1.33
2018-07-09T05:32:09.113Z,1.87
2018-07-09T05:34:40.530Z,1.40
2018-07-09T05:37:11.952Z,1.60
2018-07-09T05:39:43.608Z,1.27
2018-07-09T05:42:15.577Z,1.30
2018-07-09T05:44:47.309Z,1.17
2018-07-09T05:47:19.066Z,1.40
2018-07-09T05:49:53.337Z,1.60
2018-07-09T05:52:25.177Z,1.17
2018-07-09T05:54:56.885Z,1.40
2018-07-09T05:57:27.600Z,1.30
2018-07-09T05:59:59.209Z,1.27
2018-07-09T06:02:30.341Z,1.50
2018-07-09T06:05:01.544Z,1.60
2018-07-09T06:07:32.721Z,1.20
2018-07-09T06:10:04.259Z,1.33
2018-07-09T06:12:35.768Z,1.80
2018-07-09T06:15:07.303Z,1.43
2018-07-09T06:17:38.374Z,1.37
2018-07-09T06:20:09.777Z,1.40
2018-07-09T06:22:40.947Z,1.50
2018-07-09T06:25:12.497Z,1.63
2018-07-09T06:27:43.456Z,1.47
2018-07-09T06:30:14.542Z,1.27
2018-07-09T06:32:45.671Z,1.67
2018-07-09T06:35:17.035Z,1.40
2018-07-09T06:37:48.244Z,1.40
2018-07-09T06:40:19.433Z,1.43
2018-07-09T06:42:50.829Z,1.70
2018-07-09T06:45:22.975Z,1.47
2018-07-09T06:47:54.732Z,1.33
2018-07-09T06:50:26.201Z,1.70
2018-07-09T06:52:57.680Z,2.10
2018-07-09T06:55:29.180Z,1.50
2018-07-09T06:58:00.704Z,1.80
2018-07-09T07:00:31.739Z,1.70
2018-07-09T07:03:02.989Z,1.80
2018-07-09T07:05:34.756Z,1.60
2018-07-09T07:08:05.693Z,1.73
2018-07-09T07:10:37.010Z,1.67
2018-07-09T07:13:08.193Z,1.67
2018-07-09T07:15:39.186Z,1.33
2018-07-09T07:18:10.813Z,1.60
2018-07-09T07:20:42.107Z,1.70
2018-07-09T07:23:13.401Z,2.00
2018-07-09T07:25:44.316Z,1.70
2018-07-09T07:28:15.235Z,2.00
2018-07-09T07:30:45.345Z,1.77
2018-07-09T07:33:16.384Z,1.50
2018-07-09T07:35:47.992Z,1.43
2018-07-09T07:38:19.460Z,1.87
2018-07-09T07:40:50.610Z,2.20
2018-07-09T07:43:21.700Z,1.77
2018-07-09T07:45:52.913Z,1.67
2018-07-09T07:48:24.153Z,2.10
2018-07-09T07:50:55.921Z,1.90
2018-07-09T07:53:27.432Z,1.80
2018-07-09T07:55:58.796Z,2.10
2018-07-09T07:58:30.472Z,2.33
2018-07-09T08:01:02.040Z,2.00
2018-07-09T08:03:33.560Z,1.90
2018-07-09T08:06:05.858Z,1.93
2018-07-09T08:08:37.658Z,1.80
2018-07-09T08:11:11.223Z,1.90
2018-07-09T08:13:40.581Z,1.80
2018-07-09T08:16:12.507Z,1.67
2018-07-09T08:18:44.093Z,1.80
2018-07-09T08:21:15.544Z,2.10
2018-07-09T08:23:46.993Z,2.30
2018-07-09T08:26:18.858Z,1.90
2018-07-09T08:28:50.416Z,2.03
2018-07-09T08:31:21.890Z,1.87
2018-07-09T08:33:53.430Z,2.17
2018-07-09T08:36:25.086Z,1.93
2018-07-09T08:38:56.657Z,2.40
2018-07-09T08:41:28.002Z,2.30
2018-07-09T08:43:59.543Z,2.00
2018-07-09T08:46:30.880Z,2.00
2018-07-09T08:49:02.357Z,2.23
2018-07-09T08:51:34.172Z,2.07
2018-07-09T08:54:05.895Z,2.37
2018-07-09T08:56:37.809Z,2.10
2018-07-09T08:59:09.559Z,2.10
2018-07-09T09:01:41.265Z,2.07
2018-07-09T09:04:12.754Z,1.70
2018-07-09T09:06:44.217Z,2.40
2018-07-09T09:09:15.750Z,2.20
2018-07-09T09:11:47.654Z,2.30
2018-07-09T09:14:19.442Z,2.40
2018-07-09T09:16:51.297Z,2.20
2018-07-09T09:19:23.140Z,2.70
2018-07-09T09:21:54.694Z,2.50
2018-07-09T09:24:26.433Z,2.80
2018-07-09T09:26:57.868Z,2.80
2018-07-09T09:29:29.417Z,2.50
2018-07-09T09:32:00.813Z,2.57
2018-07-09T09:34:32.289Z,2.47
2018-07-09T09:37:04.089Z,2.50
2018-07-09T09:39:37.164Z,2.43
2018-07-09T09:42:08.929Z,2.40
2018-07-09T09:44:40.565Z,2.67
2018-07-09T09:47:12.469Z,2.67
2018-07-09T09:49:43.723Z,2.37
2018-07-09T09:52:15.148Z,2.30
2018-07-09T09:54:46.715Z,2.60
2018-07-09T09:57:17.756Z,2.60
2018-07-09T09:59:49.053Z,2.70
2018-07-09T10:02:20.438Z,2.73
2018-07-09T10:04:52.007Z,2.37
2018-07-09T10:07:23.533Z,2.33
2018-07-09T10:09:54.982Z,2.40
2018-07-09T10:12:26.440Z,2.77
2018-07-09T10:14:57.761Z,2.53
2018-07-09T10:17:28.763Z,2.47
2018-07-09T10:19:59.775Z,2.50
2018-07-09T10:22:30.921Z,2.40
2018-07-09T10:25:01.914Z,2.03
2018-07-09T10:27:33.118Z,2.60
2018-07-09T10:30:04.661Z,2.37
2018-07-09T10:32:35.956Z,2.10
2018-07-09T10:35:06.970Z,2.50
2018-07-09T10:37:38.320Z,2.20
2018-07-09T10:40:09.385Z,2.13
2018-07-09T10:42:40.812Z,1.83
2018-07-09T10:45:12.889Z,1.93
2018-07-09T10:47:44.745Z,2.00
2018-07-09T10:50:16.266Z,2.07
2018-07-09T10:52:47.710Z,1.93
2018-07-09T10:55:19.294Z,2.33
2018-07-09T10:57:50.790Z,2.13
2018-07-09T11:00:22.514Z,1.87
2018-07-09T11:02:54.059Z,2.30
2018-07-09T11:05:25.683Z,2.63
2018-07-09T11:07:57.437Z,2.10
2018-07-09T11:10:28.932Z,2.33
2018-07-09T11:13:00.598Z,2.30
2018-07-09T11:15:32.064Z,2.10
2018-07-09T11:18:03.689Z,1.90
2018-07-09T11:20:35.316Z,1.70
2018-07-09T11:23:07.273Z,1.77
2018-07-09T11:25:38.960Z,1.80
2018-07-09T11:28:10.685Z,2.13
2018-07-09T11:30:42.227Z,1.90
2018-07-09T11:33:13.666Z,1.90
2018-07-09T11:35:45.045Z,2.03
2018-07-09T11:38:16.663Z,1.70
2018-07-09T11:40:48.426Z,1.70
2018-07-09T11:43:20.158Z,2.10
2018-07-09T11:45:51.662Z,1.87
2018-07-09T11:48:23.237Z,1.97
2018-07-09T11:50:54.591Z,2.30
2018-07-09T11:53:25.686Z,1.80
2018-07-09T11:55:57.119Z,1.30
2018-07-09T11:58:28.817Z,1.73
2018-07-09T12:01:00.553Z,1.67
2018-07-09T12:03:32.116Z,1.60
2018-07-09T12:06:03.797Z,1.87
2018-07-09T12:08:35.262Z,1.70
2018-07-09T12:11:06.555Z,1.63
2018-07-09T12:13:38.241Z,2.17
2018-07-09T12:16:09.964Z,1.83
2018-07-09T12:18:42.056Z,1.80
2018-07-09T12:21:13.761Z,1.90
2018-07-09T12:23:45.200Z,1.80
2018-07-09T12:26:15.500Z,1.77
2018-07-09T12:28:47.508Z,2.17
2018-07-09T12:31:19.108Z,1.90
2018-07-09T12:33:51.225Z,2.00
2018-07-09T12:36:23.541Z,1.60
2018-07-09T12:38:55.041Z,1.80
2018-07-09T12:41:27.071Z,1.87
2018-07-09T12:43:58.585Z,1.80
2018-07-09T12:46:31.212Z,1.50
2018-07-09T12:49:03.229Z,1.73
2018-07-09T12:51:34.840Z,1.90
2018-07-09T12:54:06.079Z,1.50
2018-07-09T12:56:37.426Z,1.67
2018-07-09T12:59:08.741Z,1.57
2018-07-09T13:01:39.951Z,1.70
2018-07-09T13:04:11.668Z,1.40
2018-07-09T13:06:43.397Z,1.57
2018-07-09T13:09:14.675Z,1.67
2018-07-09T13:11:45.976Z,1.30
2018-07-09T13:14:17.150Z,1.67
2018-07-09T13:16:48.629Z,1.67
2018-07-09T13:19:20.393Z,1.13
2018-07-09T13:21:50.735Z,1.50
2018-07-09T13:24:22.157Z,1.77
2018-07-09T13:26:53.497Z,1.80
2018-07-09T13:29:24.838Z,1.83
2018-07-09T13:31:56.194Z,1.70
2018-07-09T13:34:27.724Z,1.90
2018-07-09T13:36:59.112Z,1.77
2018-07-09T13:39:30.350Z,1.87
2018-07-09T13:42:01.592Z,1.50
2018-07-09T13:44:33.352Z,1.40
2018-07-09T13:47:04.456Z,1.77
2018-07-09T13:49:35.949Z,1.50
2018-07-09T13:52:07.155Z,1.40
2018-07-09T13:54:38.778Z,1.20
2018-07-09T13:57:10.084Z,1.30
2018-07-09T13:59:41.504Z,1.50
2018-07-09T14:02:12.646Z,1.60
2018-07-09T14:04:43.893Z,1.60
2018-07-09T14:07:15.514Z,1.80
2018-07-09T14:09:46.901Z,1.40
2018-07-09T14:12:18.414Z,1.40
2018-07-09T14:14:49.460Z,1.50
2018-07-09T14:17:21.008Z,1.40
2018-07-09T14:20:30.794Z,1.47
2018-07-09T14:23:02.873Z,1.30
2018-07-09T14:25:34.060Z,1.10
2018-07-09T14:28:05.716Z,1.40
2018-07-09T14:30:36.308Z,1.20
2018-07-09T14:33:07.767Z,1.60
2018-07-09T14:35:39.006Z,1.50
2018-07-09T14:38:10.417Z,1.77
2018-07-09T14:40:41.628Z,1.50
2018-07-09T14:43:12.851Z,1.50
2018-07-09T14:45:44.283Z,1.50
2018-07-09T14:48:15.636Z,1.53
2018-07-09T14:50:46.840Z,1.37
2018-07-09T14:53:18.008Z,1.77
2018-07-09T14:55:48.956Z,1.40
2018-07-09T14:58:20.144Z,1.20
2018-07-09T15:00:51.484Z,1.47
2018-07-09T15:03:22.529Z,1.53
2018-07-09T15:05:53.791Z,1.30
2018-07-09T15:08:24.944Z,1.30
2018-07-09T15:10:56.589Z,1.40
2018-07-09T15:13:28.290Z,1.70
2018-07-09T15:15:59.952Z,1.50
2018-07-09T15:18:31.764Z,1.37
2018-07-09T15:21:03.408Z,1.30
2018-07-09T15:23:34.827Z,1.30
2018-07-09T15:26:06.609Z,1.27
2018-07-09T15:28:38.221Z,1.30
2018-07-09T15:31:09.369Z,1.30
2018-07-09T15:33:40.683Z,1.43
2018-07-09T15:36:12.193Z,1.40
2018-07-09T15:38:43.872Z,1.13
2018-07-09T15:41:15.681Z,1.27
2018-07-09T15:43:56.693Z,1.47
2018-07-09T15:46:28.410Z,1.20
2018-07-09T15:48:59.748Z,1.10
2018-07-09T15:51:31.603Z,1.40
2018-07-09T15:54:05.585Z,1.47
2018-07-09T15:56:36.809Z,1.40
2018-07-09T15:59:08.323Z,1.30
2018-07-09T16:01:39.449Z,1.40
2018-07-09T16:04:10.564Z,1.20
2018-07-09T16:06:41.692Z,1.20
2018-07-09T16:09:13.208Z,1.27
2018-07-09T16:11:44.309Z,1.10
2018-07-09T16:14:15.261Z,1.40
2018-07-09T16:16:46.544Z,1.43
2018-07-09T16:19:17.734Z,1.70
2018-07-09T16:21:48.319Z,1.40
2018-07-09T16:24:19.437Z,1.20
2018-07-09T16:26:50.636Z,1.70
2018-07-09T16:29:21.796Z,1.70
2018-07-09T16:31:53.049Z,1.80
2018-07-09T16:34:24.665Z,1.37
2018-07-09T16:36:55.917Z,1.43
2018-07-09T16:39:26.966Z,1.50
2018-07-09T16:41:58.476Z,1.60
2018-07-09T16:44:29.470Z,1.60
2018-07-09T16:47:00.675Z,1.40
2018-07-09T16:49:31.909Z,1.17
2018-07-09T16:52:03.039Z,1.50
2018-07-09T16:54:34.397Z,1.60
2018-07-09T16:57:05.605Z,1.37
2018-07-09T16:59:36.993Z,1.40
2018-07-09T17:02:08.269Z,1.60
2018-07-09T17:04:39.486Z,1.37
2018-07-09T17:07:10.488Z,1.50
2018-07-09T17:09:41.509Z,1.37
2018-07-09T17:12:12.567Z,1.20
2018-07-09T17:14:43.553Z,1.27
2018-07-09T17:17:14.694Z,1.60
2018-07-09T17:19:45.988Z,1.30
2018-07-09T17:22:17.221Z,1.80
2018-07-09T17:24:48.278Z,1.53
2018-07-09T17:27:19.431Z,1.40
2018-07-09T17:29:50.501Z,1.50
2018-07-09T17:32:22.635Z,1.33
2018-07-09T17:34:53.928Z,1.23
2018-07-09T17:40:03.993Z,1.23
2018-07-09T17:42:35.225Z,1.17
2018-07-09T17:45:07.227Z,1.50
2018-07-09T17:47:38.786Z,1.40
2018-07-09T17:50:10.428Z,1.17
2018-07-09T17:52:41.836Z,1.30
2018-07-09T17:55:13.480Z,1.50
2018-07-09T17:57:44.944Z,1.50
2018-07-09T18:00:15.510Z,1.37
2018-07-09T18:02:47.393Z,1.57
2018-07-09T18:05:18.640Z,1.57
2018-07-09T18:07:50.040Z,1.00
2018-07-09T18:10:21.965Z,1.40
2018-07-09T18:12:54.076Z,1.20
2018-07-09T18:15:25.764Z,1.30
2018-07-09T18:17:57.346Z,1.40
2018-07-09T18:20:28.641Z,1.40
2018-07-09T18:23:00.110Z,1.40
2018-07-09T18:25:31.976Z,1.37
2018-07-09T18:28:03.663Z,1.00
2018-07-09T18:30:35.336Z,1.67
2018-07-09T18:33:06.810Z,1.60
2018-07-09T18:35:38.523Z,1.30
2018-07-09T18:38:10.181Z,1.23
2018-07-09T18:40:41.831Z,1.40
2018-07-09T18:43:13.971Z,1.63
2018-07-09T18:45:45.297Z,1.47
2018-07-09T18:48:16.630Z,1.20
2018-07-09T18:50:48.080Z,1.53
2018-07-09T18:53:19.450Z,1.47
2018-07-09T18:55:50.922Z,1.43
2018-07-09T18:58:22.370Z,1.40
2018-07-09T19:00:54.001Z,1.50
2018-07-09T19:03:25.585Z,1.53
2018-07-09T19:07:15.827Z,1.30
2018-07-09T19:09:47.258Z,1.50
2018-07-09T19:12:17.475Z,1.80
2018-07-09T19:14:49.808Z,1.70
2018-07-09T19:18:30.771Z,1.70
2018-07-09T19:21:43.506Z,1.80
2018-07-09T19:24:13.423Z,1.73
2018-07-09T19:26:42.741Z,1.80
2018-07-09T19:29:11.705Z,1.60
2018-07-09T19:31:40.672Z,1.37
2018-07-09T19:34:09.732Z,1.97
2018-07-09T19:36:38.759Z,1.43
2018-07-09T19:39:08.468Z,1.77
2018-07-09T19:41:37.515Z,1.57
2018-07-09T19:44:21.337Z,1.50
2018-07-09T19:46:50.317Z,1.80
2018-07-09T19:49:19.284Z,1.40
2018-07-09T19:51:47.976Z,1.60
2018-07-09T19:54:17.080Z,1.60
2018-07-09T19:56:46.105Z,1.70
2018-07-09T19:59:15.089Z,1.57
2018-07-09T20:01:44.077Z,1.60
2018-07-09T20:04:13.106Z,1.17
2018-07-09T20:06:41.853Z,1.50
2018-07-09T20:09:15.199Z,1.77
2018-07-09T20:11:48.523Z,1.50
2018-07-09T20:14:21.934Z,1.43
2018-07-09T20:16:55.271Z,1.80
2018-07-09T20:19:24.004Z,1.77
2018-07-09T20:21:52.873Z,1.50
2018-07-09T20:24:21.533Z,1.67
2018-07-09T20:26:50.261Z,1.80
2018-07-09T20:29:19.277Z,1.87
2018-07-09T20:35:08.544Z,1.50
2018-07-09T20:41:19.877Z,1.83
2018-07-09T20:47:09.176Z,1.77
